createdAt,value
2019-05-16T00:00:34.321Z,2.70
2019-05-16T00:03:02.504Z,2.17
2019-05-16T00:05:30.674Z,2.30
2019-05-16T00:08:00.227Z,2.60
2019-05-16T00:10:28.391Z,2.07
2019-05-16T00:12:59.219Z,2.07
2019-05-16T00:15:28.686Z,2.07
2019-05-16T00:17:58.373Z,2.43
2019-05-16T00:20:28.420Z,2.00
2019-05-16T00:22:58.902Z,1.80
2019-05-16T00:25:28.591Z,2.40
2019-05-16T00:28:17.875Z,2.20
2019-05-16T00:30:48.501Z,2.40
2019-05-16T00:33:15.702Z,2.23
2019-05-16T00:35:43.931Z,2.10
2019-05-16T00:38:12.070Z,2.40
2019-05-16T00:40:40.339Z,2.20
2019-05-16T00:43:08.559Z,1.70
2019-05-16T00:45:38.462Z,1.87
2019-05-16T00:48:08.796Z,2.20
2019-05-16T00:50:38.742Z,2.00
2019-05-16T00:53:09.115Z,2.00
2019-05-16T00:55:38.979Z,2.10
2019-05-16T00:58:08.812Z,2.33
2019-05-16T01:00:45.624Z,2.03
2019-05-16T01:03:14.102Z,1.80
2019-05-16T01:05:42.330Z,2.00
2019-05-16T01:08:10.710Z,2.03
2019-05-16T01:10:39.121Z,2.20
2019-05-16T01:13:07.981Z,2.60
2019-05-16T01:15:37.989Z,1.70
2019-05-16T01:18:08.114Z,2.10
2019-05-16T01:20:38.454Z,2.70
2019-05-16T01:23:08.732Z,2.30
2019-05-16T01:25:38.767Z,2.80
2019-05-16T01:28:08.864Z,2.90
2019-05-16T01:30:38.114Z,2.53
2019-05-16T01:33:08.824Z,2.97
2019-05-16T01:35:38.526Z,2.40
2019-05-16T01:38:08.694Z,2.60
2019-05-16T01:40:38.795Z,3.03
2019-05-16T01:43:08.581Z,3.00
2019-05-16T01:45:38.491Z,3.30
2019-05-16T01:48:08.275Z,3.33
2019-05-16T01:50:38.593Z,3.70
2019-05-16T01:53:08.597Z,3.97
2019-05-16T01:55:38.087Z,4.33
2019-05-16T01:58:08.090Z,4.40
2019-05-16T02:00:48.052Z,4.70
2019-05-16T02:03:08.253Z,4.07
2019-05-16T02:05:38.573Z,4.10
2019-05-16T02:08:08.962Z,4.17
2019-05-16T02:10:37.911Z,4.17
2019-05-16T02:13:08.343Z,4.80
2019-05-16T02:15:38.127Z,4.20
2019-05-16T02:18:08.209Z,4.47
2019-05-16T02:20:39.033Z,3.90
2019-05-16T02:23:08.020Z,4.40
2019-05-16T02:25:38.148Z,4.37
2019-05-16T02:28:06.441Z,4.40
2019-05-16T02:30:34.819Z,5.10
2019-05-16T02:33:04.923Z,5.43
2019-05-16T02:35:33.134Z,5.23
2019-05-16T02:38:01.403Z,4.93
2019-05-16T02:40:31.335Z,5.30
2019-05-16T02:43:01.824Z,5.63
2019-05-16T02:45:32.395Z,7.47
2019-05-16T02:48:01.213Z,7.43
2019-05-16T02:50:31.536Z,7.57
2019-05-16T02:53:01.433Z,6.50
2019-05-16T02:55:30.785Z,7.90
2019-05-16T02:58:00.757Z,8.23
2019-05-16T03:00:36.983Z,6.53
2019-05-16T03:03:05.829Z,6.17
2019-05-16T03:05:34.303Z,6.33
2019-05-16T03:08:03.750Z,5.73
2019-05-16T03:10:32.122Z,6.20
2019-05-16T03:13:01.102Z,6.33
2019-05-16T03:15:30.975Z,5.80
2019-05-16T03:18:03.909Z,5.57
2019-05-16T03:20:32.862Z,5.60
2019-05-16T03:23:02.309Z,5.73
2019-05-16T03:25:31.116Z,5.23
2019-05-16T03:28:02.061Z,5.13
2019-05-16T03:30:34.842Z,6.20
2019-05-16T03:33:05.081Z,5.97
2019-05-16T03:35:33.929Z,5.40
2019-05-16T03:38:05.090Z,5.77
2019-05-16T03:40:34.095Z,5.33
2019-05-16T03:43:02.736Z,5.63
2019-05-16T03:45:32.195Z,4.90
2019-05-16T03:48:02.900Z,5.17
2019-05-16T03:50:31.041Z,4.80
2019-05-16T03:53:01.565Z,4.77
2019-05-16T03:55:32.459Z,4.60
2019-05-16T03:58:01.144Z,4.33
2019-05-16T04:00:52.460Z,3.50
2019-05-16T04:03:21.268Z,4.17
2019-05-16T04:05:52.461Z,4.73
2019-05-16T04:08:24.562Z,4.17
2019-05-16T04:10:52.217Z,3.93
2019-05-16T04:13:21.377Z,4.50
2019-05-16T04:15:52.389Z,4.00
2019-05-16T04:18:22.052Z,4.93
2019-05-16T04:20:52.407Z,4.43
2019-05-16T04:23:20.778Z,3.50
2019-05-16T04:25:52.445Z,3.50
2019-05-16T04:28:21.750Z,3.60
2019-05-16T04:30:50.778Z,3.40
2019-05-16T04:33:22.087Z,3.40
2019-05-16T04:35:52.392Z,3.50
2019-05-16T04:38:31.551Z,3.23
2019-05-16T04:40:51.673Z,3.53
2019-05-16T04:43:22.198Z,3.47
2019-05-16T04:45:52.193Z,4.83
2019-05-16T04:48:22.197Z,4.57
2019-05-16T04:50:51.590Z,4.17
2019-05-16T04:53:20.821Z,3.73
2019-05-16T04:55:51.554Z,5.23
2019-05-16T04:58:23.171Z,4.10
2019-05-16T05:00:51.771Z,4.23
2019-05-16T05:03:21.404Z,3.83
2019-05-16T05:05:51.308Z,4.53
2019-05-16T05:08:21.873Z,4.40
2019-05-16T05:10:51.397Z,4.60
2019-05-16T05:13:22.202Z,4.97
2019-05-16T05:15:50.890Z,4.60
2019-05-16T05:18:21.227Z,4.10
2019-05-16T05:20:52.134Z,4.07
2019-05-16T05:23:20.895Z,3.50
2019-05-16T05:25:51.555Z,4.10
2019-05-16T05:28:20.961Z,3.80
2019-05-16T05:30:50.335Z,3.97
2019-05-16T05:33:21.160Z,2.90
2019-05-16T05:35:50.790Z,2.80
2019-05-16T05:38:21.168Z,2.63
2019-05-16T05:40:51.095Z,3.20
2019-05-16T05:43:21.137Z,2.60
2019-05-16T05:45:51.060Z,2.73
2019-05-16T05:48:21.171Z,2.67
2019-05-16T05:50:50.864Z,2.43
2019-05-16T05:53:20.822Z,2.20
2019-05-16T05:55:50.983Z,2.60
2019-05-16T05:58:20.572Z,2.20
2019-05-16T06:00:51.805Z,2.20
2019-05-16T06:03:39.910Z,2.40
2019-05-16T06:06:10.312Z,2.43
2019-05-16T06:08:38.005Z,2.67
2019-05-16T06:11:06.269Z,2.93
2019-05-16T06:13:34.492Z,3.30
2019-05-16T06:16:02.698Z,2.10
2019-05-16T06:18:30.817Z,2.60
2019-05-16T06:21:00.502Z,2.30
2019-05-16T06:23:31.184Z,2.40
2019-05-16T06:26:00.400Z,5.47
2019-05-16T06:28:30.816Z,2.93
2019-05-16T06:31:01.878Z,3.33
2019-05-16T06:33:30.550Z,1.77
2019-05-16T06:36:00.325Z,2.07
2019-05-16T06:38:29.879Z,2.10
2019-05-16T06:41:00.457Z,2.17
2019-05-16T06:43:30.153Z,1.70
2019-05-16T06:46:00.644Z,2.27
2019-05-16T06:48:30.426Z,8.17
2019-05-16T06:51:02.566Z,2.60
2019-05-16T06:53:29.951Z,4.23
2019-05-16T06:56:00.167Z,5.13
2019-05-16T06:58:30.272Z,2.40
2019-05-16T07:01:00.440Z,1.70
2019-05-16T07:03:30.650Z,1.93
2019-05-16T07:06:00.507Z,1.77
2019-05-16T07:08:30.986Z,1.90
2019-05-16T07:10:59.985Z,1.70
2019-05-16T07:13:30.387Z,2.13
2019-05-16T07:16:00.600Z,2.57
2019-05-16T07:18:30.747Z,5.13
2019-05-16T07:21:00.208Z,2.57
2019-05-16T07:23:29.840Z,3.57
2019-05-16T07:26:00.590Z,5.07
2019-05-16T07:28:30.086Z,3.40
2019-05-16T07:31:00.488Z,2.40
2019-05-16T07:33:28.096Z,2.37
2019-05-16T07:35:56.406Z,3.47
2019-05-16T07:38:24.658Z,2.80
2019-05-16T07:40:52.931Z,2.53
2019-05-16T07:43:21.259Z,3.60
2019-05-16T07:45:51.415Z,2.23
2019-05-16T07:48:21.610Z,2.50
2019-05-16T07:50:50.283Z,2.90
2019-05-16T07:53:21.137Z,2.60
2019-05-16T07:56:10.467Z,1.83
2019-05-16T07:58:38.107Z,3.53
2019-05-16T08:01:09.129Z,2.97
2019-05-16T08:03:36.393Z,7.63
2019-05-16T08:06:04.667Z,2.43
2019-05-16T08:08:33.021Z,4.53
2019-05-16T08:11:01.743Z,3.60
2019-05-16T08:13:30.790Z,2.00
2019-05-16T08:16:01.127Z,1.97
2019-05-16T08:18:30.213Z,2.87
2019-05-16T08:21:01.029Z,2.80
2019-05-16T08:23:30.514Z,1.70
2019-05-16T08:26:01.135Z,1.77
2019-05-16T08:28:30.817Z,2.73
2019-05-16T08:31:00.879Z,1.97
2019-05-16T08:33:31.972Z,1.30
2019-05-16T08:36:02.937Z,1.60
2019-05-16T08:38:30.892Z,1.70
2019-05-16T08:41:07.931Z,1.70
2019-05-16T08:43:31.707Z,1.57
2019-05-16T08:46:01.033Z,1.50
2019-05-16T08:48:31.910Z,1.40
2019-05-16T08:51:02.846Z,1.97
2019-05-16T08:53:31.632Z,1.60
2019-05-16T08:56:02.577Z,1.40
2019-05-16T08:58:33.028Z,2.23
2019-05-16T09:01:02.254Z,6.60
2019-05-16T09:03:32.367Z,2.67
2019-05-16T09:06:02.860Z,1.40
2019-05-16T09:08:49.167Z,1.13
2019-05-16T09:11:31.380Z,1.30
2019-05-16T09:13:47.817Z,1.17
2019-05-16T09:16:18.295Z,1.53
2019-05-16T09:18:46.627Z,1.10
2019-05-16T09:21:17.977Z,1.50
2019-05-16T09:23:46.998Z,1.13
2019-05-16T09:26:18.751Z,1.30
2019-05-16T09:28:48.238Z,1.47
2019-05-16T09:31:17.902Z,1.20
2019-05-16T09:33:47.385Z,0.80
2019-05-16T09:36:17.485Z,1.50
2019-05-16T09:38:48.134Z,1.10
2019-05-16T09:41:16.898Z,1.23
2019-05-16T09:43:48.651Z,1.43
2019-05-16T09:46:17.195Z,1.43
2019-05-16T09:48:47.717Z,1.27
2019-05-16T09:51:17.268Z,1.10
2019-05-16T09:53:47.164Z,1.10
2019-05-16T09:56:16.774Z,1.00
2019-05-16T09:58:46.715Z,1.40
2019-05-16T10:01:17.385Z,1.40
2019-05-16T10:03:47.711Z,1.20
2019-05-16T10:06:19.147Z,3.03
2019-05-16T10:08:46.441Z,1.63
2019-05-16T10:11:17.857Z,1.43
2019-05-16T10:13:46.936Z,1.17
2019-05-16T10:16:16.710Z,1.40
2019-05-16T10:18:47.369Z,1.83
2019-05-16T10:21:19.652Z,1.50
2019-05-16T10:23:46.811Z,1.30
2019-05-16T10:26:17.151Z,1.40
2019-05-16T10:28:46.834Z,1.30
2019-05-16T10:31:17.604Z,1.40
2019-05-16T10:33:47.821Z,1.73
2019-05-16T10:36:17.344Z,1.30
2019-05-16T10:38:48.156Z,1.80
2019-05-16T10:41:15.296Z,1.40
2019-05-16T10:43:43.490Z,5.03
2019-05-16T10:46:11.895Z,9.77
2019-05-16T10:48:40.930Z,2.70
2019-05-16T10:51:09.116Z,1.70
2019-05-16T10:54:00.451Z,2.10
2019-05-16T10:56:07.879Z,2.63
2019-05-16T10:58:47.156Z,2.80
2019-05-16T11:01:19.503Z,1.30
2019-05-16T11:03:36.349Z,1.20
2019-05-16T11:06:08.350Z,1.50
2019-05-16T11:08:37.189Z,1.40
2019-05-16T11:11:06.703Z,1.20
2019-05-16T11:13:47.208Z,2.50
2019-05-16T11:16:17.422Z,2.10
2019-05-16T11:18:45.748Z,1.70
2019-05-16T11:21:13.956Z,1.30
2019-05-16T11:23:42.194Z,1.90
2019-05-16T11:26:10.279Z,1.93
2019-05-16T11:28:38.613Z,1.80
2019-05-16T11:31:07.737Z,1.40
2019-05-16T11:33:37.052Z,1.73
2019-05-16T11:36:08.093Z,4.97
2019-05-16T11:38:37.753Z,1.83
2019-05-16T11:41:07.406Z,2.20
2019-05-16T11:43:36.711Z,1.73
2019-05-16T11:46:05.050Z,2.00
2019-05-16T11:48:33.248Z,2.00
2019-05-16T11:51:01.537Z,2.17
2019-05-16T11:53:29.813Z,2.40
2019-05-16T11:56:01.551Z,1.90
2019-05-16T11:58:28.062Z,2.40
2019-05-16T12:00:57.499Z,2.50
2019-05-16T12:03:28.100Z,2.00
2019-05-16T12:05:58.001Z,1.77
2019-05-16T12:08:26.475Z,1.70
2019-05-16T12:10:54.792Z,1.70
2019-05-16T12:13:31.631Z,1.33
2019-05-16T12:15:53.201Z,1.67
2019-05-16T12:18:21.402Z,1.77
2019-05-16T12:20:49.769Z,2.20
2019-05-16T12:23:17.807Z,2.30
2019-05-16T12:25:47.519Z,1.60
2019-05-16T12:28:16.865Z,10.73
2019-05-16T12:30:47.214Z,4.43
2019-05-16T12:33:18.405Z,2.57
2019-05-16T12:35:47.471Z,2.43
2019-05-16T12:38:17.074Z,2.07
2019-05-16T12:40:47.819Z,2.57
2019-05-16T12:43:17.782Z,2.40
2019-05-16T12:45:47.256Z,2.40
2019-05-16T12:48:19.909Z,2.37
2019-05-16T12:50:48.118Z,2.37
2019-05-16T12:53:16.182Z,1.97
2019-05-16T12:55:44.545Z,3.33
2019-05-16T12:58:13.699Z,12.27
2019-05-16T13:00:44.137Z,7.07
2019-05-16T13:03:12.355Z,3.30
2019-05-16T13:05:40.554Z,2.83
2019-05-16T13:08:08.992Z,2.30
2019-05-16T13:10:38.045Z,2.17
2019-05-16T13:13:07.773Z,2.47
2019-05-16T13:15:38.217Z,2.30
2019-05-16T13:18:07.984Z,2.10
2019-05-16T13:20:39.295Z,2.47
2019-05-16T13:23:14.224Z,2.23
2019-05-16T13:25:36.937Z,2.70
2019-05-16T13:28:07.873Z,1.93
2019-05-16T13:30:37.701Z,2.03
2019-05-16T13:33:07.330Z,2.10
2019-05-16T13:35:37.056Z,1.80
2019-05-16T13:38:07.976Z,2.40
2019-05-16T13:40:35.515Z,2.50
2019-05-16T13:43:03.837Z,2.10
2019-05-16T13:45:31.961Z,2.43
2019-05-16T13:48:00.144Z,2.20
2019-05-16T13:50:28.264Z,2.10
2019-05-16T13:52:58.313Z,2.57
2019-05-16T13:55:27.165Z,2.97
2019-05-16T13:57:55.560Z,2.20
2019-05-16T14:00:24.075Z,2.50
2019-05-16T14:02:52.271Z,2.70
2019-05-16T14:05:21.539Z,2.73
2019-05-16T14:07:49.829Z,2.57
2019-05-16T14:10:18.626Z,2.87
2019-05-16T14:12:50.104Z,3.30
2019-05-16T14:15:18.174Z,3.80
2019-05-16T14:17:48.904Z,3.30
2019-05-16T14:20:18.181Z,2.63
2019-05-16T14:22:46.698Z,5.07
2019-05-16T14:25:15.241Z,3.70
2019-05-16T14:27:43.278Z,4.10
2019-05-16T14:30:12.842Z,3.60
2019-05-16T14:32:43.685Z,3.57
2019-05-16T14:35:11.085Z,4.23
2019-05-16T14:37:39.285Z,5.30
2019-05-16T14:40:08.055Z,6.23
2019-05-16T14:42:38.728Z,6.30
2019-05-16T14:45:12.022Z,6.07
2019-05-16T14:47:37.930Z,6.23
2019-05-16T14:50:13.593Z,5.60
2019-05-16T14:52:36.797Z,5.00
2019-05-16T14:55:07.302Z,4.00
2019-05-16T14:57:36.875Z,3.70
2019-05-16T15:00:07.372Z,5.50
2019-05-16T15:02:38.223Z,4.50
2019-05-16T15:05:07.969Z,3.97
2019-05-16T15:07:37.610Z,3.90
2019-05-16T15:10:07.364Z,4.73
2019-05-16T15:12:37.513Z,8.57
2019-05-16T15:15:21.202Z,6.30
2019-05-16T15:17:41.861Z,3.87
2019-05-16T15:20:10.590Z,3.03
2019-05-16T15:22:38.786Z,3.77
2019-05-16T15:25:08.122Z,3.17
2019-05-16T15:27:37.178Z,9.20
2019-05-16T15:30:07.002Z,3.43
2019-05-16T15:32:38.444Z,3.10
2019-05-16T15:35:07.434Z,3.10
2019-05-16T15:37:37.303Z,4.13
2019-05-16T15:40:07.261Z,3.80
2019-05-16T15:42:37.218Z,3.10
2019-05-16T15:45:06.964Z,4.57
2019-05-16T15:47:37.485Z,3.40
2019-05-16T15:50:07.889Z,4.80
2019-05-16T15:52:38.150Z,3.47
2019-05-16T15:55:10.218Z,2.90
2019-05-16T15:57:39.021Z,2.50
2019-05-16T16:00:10.735Z,3.67
2019-05-16T16:02:38.321Z,3.17
2019-05-16T16:05:07.385Z,3.77
2019-05-16T16:07:38.569Z,3.30
2019-05-16T16:10:07.340Z,2.87
2019-05-16T16:12:37.543Z,4.37
2019-05-16T16:15:07.612Z,4.90
2019-05-16T16:17:38.098Z,3.40
2019-05-16T16:20:10.494Z,3.80
2019-05-16T16:22:37.769Z,3.47
2019-05-16T16:25:06.803Z,3.80
2019-05-16T16:27:35.263Z,4.20
2019-05-16T16:30:06.862Z,4.03
2019-05-16T16:32:37.608Z,4.53
2019-05-16T16:35:07.929Z,3.90
2019-05-16T16:37:37.778Z,3.20
2019-05-16T16:40:10.890Z,3.33
2019-05-16T16:42:37.496Z,4.20
2019-05-16T16:45:07.268Z,2.80
2019-05-16T16:47:37.727Z,2.93
2019-05-16T16:50:07.662Z,2.60
2019-05-16T16:52:37.827Z,2.67
2019-05-16T16:55:07.821Z,3.77
2019-05-16T16:57:38.288Z,4.80
2019-05-16T17:00:07.752Z,2.90
2019-05-16T17:02:37.327Z,5.17
2019-05-16T17:05:12.010Z,2.50
2019-05-16T17:07:37.448Z,3.10
2019-05-16T17:10:08.011Z,8.40
2019-05-16T17:12:41.683Z,3.07
2019-05-16T17:15:08.442Z,3.47
2019-05-16T17:17:37.574Z,5.33
2019-05-16T17:20:07.802Z,4.70
2019-05-16T17:22:37.515Z,3.60
2019-05-16T17:25:12.399Z,3.10
2019-05-16T17:27:40.715Z,9.50
2019-05-16T17:30:16.815Z,2.60
2019-05-16T17:32:44.627Z,3.10
2019-05-16T17:35:13.603Z,2.73
2019-05-16T17:37:41.820Z,2.30
2019-05-16T17:40:10.770Z,3.30
2019-05-16T17:42:58.059Z,2.83
2019-05-16T17:45:26.699Z,4.87
2019-05-16T17:47:57.083Z,3.70
2019-05-16T17:50:26.333Z,3.40
2019-05-16T17:52:54.577Z,3.57
2019-05-16T17:55:22.855Z,3.23
2019-05-16T17:57:51.067Z,3.23
2019-05-16T18:00:25.094Z,3.30
2019-05-16T18:02:50.323Z,3.50
2019-05-16T18:05:18.766Z,3.40
2019-05-16T18:07:47.575Z,4.03
2019-05-16T18:10:17.131Z,3.17
2019-05-16T18:12:47.695Z,3.97
2019-05-16T18:15:19.707Z,3.40
2019-05-16T18:17:48.025Z,4.10
2019-05-16T18:20:16.794Z,4.17
2019-05-16T18:22:47.186Z,4.40
2019-05-16T18:25:16.432Z,5.40
2019-05-16T18:27:44.885Z,3.87
2019-05-16T18:30:16.722Z,4.60
2019-05-16T18:32:44.651Z,4.73
2019-05-16T18:35:13.184Z,3.40
2019-05-16T18:37:41.246Z,3.90
2019-05-16T18:40:10.103Z,3.93
2019-05-16T18:42:38.341Z,3.10
2019-05-16T18:45:07.403Z,3.50
2019-05-16T18:47:37.845Z,3.50
2019-05-16T18:50:07.563Z,2.60
2019-05-16T18:52:37.532Z,3.43
2019-05-16T18:55:08.427Z,2.50
2019-05-16T18:57:37.750Z,3.17
2019-05-16T19:00:10.905Z,3.77
2019-05-16T19:02:39.402Z,5.00
2019-05-16T19:05:08.261Z,4.67
2019-05-16T19:07:37.102Z,5.20
2019-05-16T19:10:06.837Z,7.23
2019-05-16T19:12:37.166Z,5.57
2019-05-16T19:15:07.131Z,5.30
2019-05-16T19:17:35.722Z,7.57
2019-05-16T19:20:06.454Z,8.03
2019-05-16T19:22:36.945Z,6.57
2019-05-16T19:25:06.945Z,9.73
2019-05-16T19:27:37.086Z,8.23
2019-05-16T19:30:06.302Z,7.30
2019-05-16T19:32:34.371Z,6.47
2019-05-16T19:35:02.653Z,6.70
2019-05-16T19:37:31.648Z,6.00
2019-05-16T19:39:59.910Z,6.30
2019-05-16T19:42:29.801Z,7.87
2019-05-16T19:44:59.200Z,4.90
2019-05-16T19:47:35.052Z,5.13
2019-05-16T19:49:57.146Z,4.73
2019-05-16T19:52:27.011Z,5.30
2019-05-16T19:54:56.452Z,5.23
2019-05-16T19:57:26.608Z,4.47
2019-05-16T19:59:56.584Z,5.10
2019-05-16T20:02:27.179Z,7.93
2019-05-16T20:04:56.243Z,5.53
2019-05-16T20:07:26.397Z,5.13
2019-05-16T20:09:54.711Z,4.73
2019-05-16T20:12:22.983Z,4.33
2019-05-16T20:15:03.581Z,5.20
2019-05-16T20:17:21.244Z,4.13
2019-05-16T20:19:49.657Z,4.03
2019-05-16T20:22:17.962Z,4.63
2019-05-16T20:24:46.843Z,3.20
2019-05-16T20:27:16.989Z,3.97
2019-05-16T20:29:47.320Z,3.93
2019-05-16T20:32:16.893Z,3.57
2019-05-16T20:34:46.819Z,4.30
2019-05-16T20:37:17.461Z,3.87
2019-05-16T20:40:00.407Z,3.90
2019-05-16T20:42:31.684Z,4.33
2019-05-16T20:44:59.955Z,3.53
2019-05-16T20:47:28.237Z,3.80
2019-05-16T20:49:57.051Z,3.87
2019-05-16T20:52:26.906Z,4.30
2019-05-16T20:54:57.644Z,7.97
2019-05-16T20:57:26.548Z,4.73
2019-05-16T20:59:54.634Z,6.60
2019-05-16T21:02:23.016Z,4.70
2019-05-16T21:04:51.397Z,4.43
2019-05-16T21:07:19.832Z,4.53
2019-05-16T21:09:48.094Z,4.53
2019-05-16T21:12:17.262Z,4.67
2019-05-16T21:14:45.787Z,4.07
2019-05-16T21:17:14.098Z,4.20
2019-05-16T21:19:42.374Z,4.10
2019-05-16T21:22:10.821Z,4.63
2019-05-16T21:24:39.300Z,4.03
2019-05-16T21:27:07.635Z,4.50
2019-05-16T21:29:36.898Z,4.00
2019-05-16T21:32:07.226Z,4.17
2019-05-16T21:34:36.570Z,3.57
2019-05-16T21:37:14.583Z,4.10
2019-05-16T21:39:37.808Z,3.93
2019-05-16T21:42:07.437Z,4.00
2019-05-16T21:44:37.353Z,3.50
2019-05-16T21:47:06.065Z,3.67
2019-05-16T21:49:36.600Z,3.97
2019-05-16T21:52:04.358Z,3.90
2019-05-16T21:54:32.433Z,3.57
2019-05-16T21:57:00.677Z,4.10
2019-05-16T21:59:28.962Z,3.67
2019-05-16T22:01:57.579Z,3.50
2019-05-16T22:04:25.850Z,3.17
2019-05-16T22:06:53.999Z,3.33
2019-05-16T22:09:22.311Z,3.00
2019-05-16T22:11:50.547Z,2.63
2019-05-16T22:14:23.580Z,3.20
2019-05-16T22:16:51.927Z,3.73
2019-05-16T22:19:20.177Z,3.77
2019-05-16T22:21:48.399Z,4.23
2019-05-16T22:24:17.231Z,4.20
2019-05-16T22:26:46.661Z,4.07
2019-05-16T22:29:16.932Z,4.67
2019-05-16T22:31:47.126Z,4.90
2019-05-16T22:34:16.956Z,5.50
2019-05-16T22:36:46.255Z,4.57
2019-05-16T22:39:17.193Z,4.80
2019-05-16T22:41:46.587Z,4.60
2019-05-16T22:44:17.414Z,4.97
2019-05-16T22:46:46.480Z,5.13
2019-05-16T22:49:16.839Z,4.70
2019-05-16T22:51:44.993Z,4.70
2019-05-16T22:54:13.356Z,4.67
2019-05-16T22:56:41.631Z,4.60
2019-05-16T22:59:09.842Z,4.90
2019-05-16T23:01:38.296Z,5.33
2019-05-16T23:04:07.281Z,5.30
2019-05-16T23:06:36.328Z,4.87
2019-05-16T23:09:06.956Z,4.77
2019-05-16T23:11:36.336Z,4.50
2019-05-16T23:14:06.310Z,4.63
2019-05-16T23:16:37.188Z,4.00
2019-05-16T23:19:06.639Z,4.23
2019-05-16T23:21:36.766Z,3.93
2019-05-16T23:24:06.664Z,3.90
2019-05-16T23:26:36.350Z,3.80
2019-05-16T23:29:04.738Z,3.50
2019-05-16T23:31:33.170Z,3.67
2019-05-16T23:34:01.434Z,3.10
2019-05-16T23:36:29.720Z,3.63
2019-05-16T23:38:57.924Z,3.90
2019-05-16T23:41:27.344Z,3.73
2019-05-16T23:43:56.667Z,4.40
2019-05-16T23:46:25.108Z,3.67
2019-05-16T23:48:53.333Z,3.87
2019-05-16T23:51:21.583Z,3.40
2019-05-16T23:53:49.787Z,3.77
2019-05-16T23:56:17.856Z,4.00
2019-05-16T23:58:47.673Z,3.60
